Time;durP1;ratioP1;P1;durP2;ratioP2;P2;SDS_P1;SDS_P2;PMS_P1;PMS_P2;Temp;Humidity;BMP_temperature;BMP_pressure;BME280_temperature;BME280_humidity;BME280_pressure;Samples;Min_cycle;Max_cycle;Signal;HPM_P1;HPM_P2
2022/03/19 00:00:08;;;;;;;17.45;15.85;;;19.50;47.80;;;;;;4979532;28;20187;-67
2022/03/19 00:02:42;;;;;;;16.67;15.07;;;19.50;47.80;;;;;;5013010;28;20190;-68
2022/03/19 00:05:09;;;;;;;18.35;16.60;;;19.50;47.80;;;;;;4978834;28;20224;-67
2022/03/19 00:07:38;;;;;;;19.10;17.17;;;19.50;47.90;;;;;;4995256;28;20192;-68
2022/03/19 00:10:06;;;;;;;19.25;17.35;;;19.50;47.80;;;;;;4976400;28;20192;-68
2022/03/19 00:12:32;;;;;;;21.25;19.10;;;19.50;47.80;;;;;;4959734;28;20189;-67
2022/03/19 00:14:58;;;;;;;21.13;18.90;;;19.50;47.80;;;;;;4959582;28;20215;-68
2022/03/19 00:17:24;;;;;;;18.73;17.00;;;19.50;47.80;;;;;;4975962;28;20191;-68
2022/03/19 00:19:49;;;;;;;20.65;18.45;;;19.50;47.80;;;;;;4959933;28;20181;-68
2022/03/19 00:22:15;;;;;;;20.08;18.08;;;19.50;47.80;;;;;;4975656;28;20550;-67
2022/03/19 00:24:41;;;;;;;20.77;18.73;;;19.50;47.90;;;;;;4959302;28;20231;-67
2022/03/19 00:27:07;;;;;;;22.00;19.88;;;19.50;47.80;;;;;;4959412;28;20217;-68
2022/03/19 00:29:33;;;;;;;20.63;18.58;;;19.50;47.80;;;;;;4959464;28;20185;-67
2022/03/19 00:31:59;;;;;;;19.35;17.35;;;19.40;47.80;;;;;;4992942;28;20185;-68
2022/03/19 00:34:25;;;;;;;19.17;17.38;;;19.50;47.90;;;;;;4959302;28;20196;-68
2022/03/19 00:36:50;;;;;;;18.58;16.88;;;19.40;47.80;;;;;;4975451;28;20204;-67
2022/03/19 00:39:16;;;;;;;18.40;16.65;;;19.50;47.80;;;;;;4975560;28;20662;-67
2022/03/19 00:41:42;;;;;;;18.85;17.05;;;19.40;47.70;;;;;;4959410;28;20189;-68
2022/03/19 00:44:08;;;;;;;17.85;16.15;;;19.40;47.80;;;;;;4974301;28;20201;-67
2022/03/19 00:46:34;;;;;;;19.08;17.17;;;19.50;47.80;;;;;;4959268;28;20239;-68
2022/03/19 00:48:59;;;;;;;19.17;17.30;;;19.50;47.90;;;;;;4975711;28;20192;-67
2022/03/19 00:51:26;;;;;;;17.67;15.98;;;19.40;47.80;;;;;;4959514;28;20229;-67
2022/03/19 00:53:52;;;;;;;18.45;16.67;;;19.50;47.80;;;;;;4975202;28;20231;-68
2022/03/19 00:56:18;;;;;;;17.70;16.00;;;19.40;47.70;;;;;;4975322;28;20204;-68
2022/03/19 00:58:44;;;;;;;18.42;16.73;;;19.50;47.90;;;;;;4975315;28;20199;-68
2022/03/19 01:01:10;;;;;;;18.25;16.45;;;19.50;47.90;;;;;;4975562;28;20646;-68
2022/03/19 01:03:35;;;;;;;19.10;17.25;;;19.50;47.90;;;;;;4958999;28;20208;-68
2022/03/19 01:06:01;;;;;;;18.98;17.17;;;19.40;47.70;;;;;;4992339;28;20200;-67
2022/03/19 01:08:27;;;;;;;21.55;19.35;;;19.50;47.80;;;;;;4975219;28;20181;-68
2022/03/19 01:10:53;;;;;;;19.80;17.88;;;19.50;47.80;;;;;;4992574;28;20624;-68
2022/03/19 01:13:19;;;;;;;19.35;17.45;;;19.50;47.80;;;;;;4959045;28;20279;-68
2022/03/19 01:15:45;;;;;;;20.95;18.95;;;19.50;47.80;;;;;;4975024;28;20207;-68
2022/03/19 01:18:11;;;;;;;20.15;18.23;;;19.40;47.70;;;;;;4959012;28;20288;-67
2022/03/19 01:20:36;;;;;;;21.30;19.20;;;19.40;47.70;;;;;;4959053;28;20184;-68
2022/03/19 01:23:02;;;;;;;21.65;19.55;;;19.50;47.80;;;;;;4975302;28;20192;-68
2022/03/19 01:25:29;;;;;;;21.40;19.30;;;19.40;47.60;;;;;;4958791;28;20216;-67
2022/03/19 01:27:54;;;;;;;21.45;19.30;;;19.40;47.70;;;;;;4992361;28;20184;-68
2022/03/19 01:30:22;;;;;;;18.90;16.98;;;19.40;47.70;;;;;;4992344;28;20615;-68
2022/03/19 01:32:49;;;;;;;17.83;16.13;;;19.40;47.80;;;;;;4975167;28;20185;-68
2022/03/19 01:35:18;;;;;;;16.83;15.30;;;19.40;48.40;;;;;;4958687;28;20212;-68
2022/03/19 01:37:45;;;;;;;17.25;15.55;;;19.40;47.70;;;;;;4974956;28;20200;-68
2022/03/19 01:40:13;;;;;;;16.50;14.95;;;19.40;47.70;;;;;;4975213;28;20189;-68
2022/03/19 01:42:43;;;;;;;17.52;15.77;;;19.40;47.70;;;;;;4974998;28;20189;-67
2022/03/19 01:45:13;;;;;;;17.23;15.55;;;19.40;47.70;;;;;;4974666;28;20247;-67
2022/03/19 01:47:39;;;;;;;16.88;15.18;;;19.40;47.60;;;;;;4958797;28;20276;-68
2022/03/19 01:50:07;;;;;;;17.10;15.40;;;19.50;47.70;;;;;;4959136;28;20185;-67
2022/03/19 01:52:33;;;;;;;16.40;14.85;;;19.40;47.60;;;;;;4959035;28;20185;-68
2022/03/19 01:55:00;;;;;;;17.52;15.82;;;19.40;47.60;;;;;;4976701;28;20208;-67
2022/03/19 01:57:37;;;;;;;18.42;16.63;;;19.40;47.60;;;;;;4978542;28;20184;-68
2022/03/19 02:00:08;;;;;;;19.80;17.90;;;19.40;47.60;;;;;;4962750;28;20189;-67
2022/03/19 02:02:42;;;;;;;18.98;17.17;;;19.40;47.60;;;;;;4978357;28;20189;-67
2022/03/19 02:05:19;;;;;;;19.25;17.45;;;19.40;47.60;;;;;;4979196;28;20275;-67
2022/03/19 02:07:48;;;;;;;18.15;16.42;;;19.40;47.60;;;;;;4994565;28;20181;-67
2022/03/19 02:10:16;;;;;;;16.92;15.30;;;19.40;47.60;;;;;;4994279;28;20185;-67
2022/03/19 02:12:44;;;;;;;16.45;14.85;;;19.40;47.60;;;;;;4995531;28;20178;-68
2022/03/19 02:15:12;;;;;;;16.38;14.80;;;19.40;47.60;;;;;;4995509;28;20296;-68
2022/03/19 02:17:39;;;;;;;15.85;14.35;;;19.40;47.60;;;;;;4994252;28;20200;-67
2022/03/19 02:20:06;;;;;;;16.17;14.68;;;19.40;47.60;;;;;;4994113;28;20188;-67
2022/03/19 02:22:32;;;;;;;15.70;14.20;;;19.40;47.60;;;;;;4995341;28;20279;-67
2022/03/19 02:27:44;;;;;;;16.67;15.18;;;19.40;47.60;;;;;;4995236;28;20742;-67
2022/03/19 02:30:12;;;;;;;16.75;15.18;;;19.40;47.60;;;;;;4977800;28;20185;-68
2022/03/19 02:32:40;;;;;;;17.25;15.60;;;19.40;47.60;;;;;;4977716;28;20647;-67
2022/03/19 02:35:07;;;;;;;17.75;16.00;;;19.40;47.60;;;;;;4977438;28;20209;-67
2022/03/19 02:37:45;;;;;;;18.40;16.60;;;19.40;47.60;;;;;;4993827;28;20199;-67
2022/03/19 02:40:17;;;;;;;18.33;16.63;;;19.40;47.60;;;;;;4994133;28;20192;-68
2022/03/19 02:42:51;;;;;;;17.77;16.08;;;19.40;47.50;;;;;;4993774;28;20240;-67
2022/03/19 02:45:21;;;;;;;16.35;14.75;;;19.40;47.60;;;;;;4993417;28;20216;-68
2022/03/19 02:47:59;;;;;;;15.55;14.05;;;19.40;47.60;;;;;;4993545;28;20662;-68
2022/03/19 02:50:35;;;;;;;14.63;13.32;;;19.40;47.60;;;;;;4993585;28;20231;-67
2022/03/19 02:53:08;;;;;;;14.60;13.30;;;19.40;47.60;;;;;;4976994;28;20181;-67
2022/03/19 02:55:37;;;;;;;16.00;14.48;;;19.40;47.60;;;;;;4994187;28;20201;-67
2022/03/19 02:58:05;;;;;;;15.57;14.07;;;19.40;47.60;;;;;;4991874;28;20227;-67
2022/03/19 03:00:33;;;;;;;15.93;14.32;;;19.40;47.50;;;;;;4976691;28;20197;-67
2022/03/19 03:03:00;;;;;;;16.55;15.02;;;19.40;47.50;;;;;;4976744;28;20327;-67
2022/03/19 03:05:26;;;;;;;15.45;13.80;;;19.40;47.40;;;;;;4976073;28;20255;-68
2022/03/19 03:07:52;;;;;;;17.63;15.90;;;19.40;47.50;;;;;;4958839;28;20193;-67
2022/03/19 03:10:19;;;;;;;17.75;15.95;;;19.40;47.40;;;;;;4960674;28;20666;-68
2022/03/19 03:12:45;;;;;;;16.83;15.15;;;19.40;47.40;;;;;;4961095;28;20188;-68
2022/03/19 03:15:11;;;;;;;17.20;15.50;;;19.30;47.40;;;;;;4976526;28;20205;-67
2022/03/19 03:17:37;;;;;;;16.73;15.13;;;19.40;47.50;;;;;;4976944;28;20176;-67
2022/03/19 03:20:03;;;;;;;16.50;14.93;;;19.40;47.40;;;;;;4960757;28;20212;-67
2022/03/19 03:22:31;;;;;;;14.93;13.45;;;19.40;47.50;;;;;;4994208;28;20220;-68
2022/03/19 03:24:57;;;;;;;14.82;13.43;;;19.40;47.30;;;;;;4960430;28;20221;-67
2022/03/19 03:27:23;;;;;;;14.00;12.60;;;19.40;47.40;;;;;;4976804;28;20180;-68
2022/03/19 03:29:49;;;;;;;14.02;12.65;;;19.40;47.30;;;;;;4976695;28;20204;-67
2022/03/19 03:32:15;;;;;;;14.63;13.25;;;19.30;47.30;;;;;;4976546;28;20215;-67
2022/03/19 03:34:41;;;;;;;14.02;12.73;;;19.40;47.40;;;;;;4993702;28;20225;-68
2022/03/19 03:37:08;;;;;;;15.23;13.77;;;19.40;47.40;;;;;;4976723;28;20188;-67
2022/03/19 03:39:34;;;;;;;14.50;13.20;;;19.40;47.40;;;;;;4960363;28;20185;-67
2022/03/19 03:42:00;;;;;;;14.50;13.10;;;19.40;47.40;;;;;;4976191;28;20199;-68
2022/03/19 03:47:04;;;;;;;14.75;13.32;;;19.40;47.30;;;;;;4951102;29;20214;-62
2022/03/19 03:49:30;;;;;;;14.25;12.95;;;19.40;47.30;;;;;;4953756;29;20193;-62
2022/03/19 03:51:56;;;;;;;14.75;13.35;;;19.40;47.30;;;;;;4953655;29;20191;-62
2022/03/19 03:54:22;;;;;;;15.73;14.32;;;19.30;47.20;;;;;;4953760;29;20197;-63
2022/03/19 03:56:49;;;;;;;14.95;13.55;;;19.40;47.30;;;;;;4953803;29;20238;-63
2022/03/19 03:59:15;;;;;;;16.88;15.20;;;19.30;47.20;;;;;;4937520;29;20720;-62
2022/03/19 04:01:41;;;;;;;16.60;14.93;;;19.40;47.30;;;;;;4937532;29;20302;-62
2022/03/19 04:04:07;;;;;;;15.20;13.80;;;19.40;47.30;;;;;;4953147;29;20248;-62
2022/03/19 04:06:32;;;;;;;15.50;14.00;;;19.40;47.20;;;;;;4937666;29;20679;-62
2022/03/19 04:08:58;;;;;;;16.42;14.77;;;19.40;47.30;;;;;;4937695;29;20194;-62
2022/03/19 04:11:24;;;;;;;14.65;13.25;;;19.40;47.30;;;;;;4937583;29;20186;-62
2022/03/19 04:13:50;;;;;;;15.48;13.98;;;19.40;47.30;;;;;;4953313;28;20217;-61
2022/03/19 04:16:15;;;;;;;14.20;12.80;;;19.40;47.30;;;;;;4937418;29;20214;-62
2022/03/19 04:18:41;;;;;;;13.68;12.43;;;19.40;47.20;;;;;;4937247;29;20210;-62
2022/03/19 04:21:07;;;;;;;13.15;11.95;;;19.40;47.20;;;;;;4937158;29;20190;-62
2022/03/19 04:23:34;;;;;;;12.85;11.65;;;19.40;47.20;;;;;;4953348;28;20707;-62
2022/03/19 04:25:59;;;;;;;13.27;12.07;;;19.40;47.20;;;;;;4952840;29;20215;-62
2022/03/19 04:28:25;;;;;;;14.10;12.77;;;19.40;47.20;;;;;;4953138;28;20241;-62
2022/03/19 04:30:51;;;;;;;14.23;12.82;;;19.30;47.10;;;;;;4954416;28;20182;-63
2022/03/19 04:33:20;;;;;;;11.63;10.52;;;19.40;47.20;;;;;;4937500;29;20265;-61
2022/03/19 04:38:30;;;;;;;13.82;12.55;;;19.40;47.10;;;;;;4953412;29;20198;-62
2022/03/19 04:40:56;;;;;;;13.60;12.30;;;19.40;47.30;;;;;;4921571;29;20726;-63
2022/03/19 04:43:22;;;;;;;13.85;12.65;;;19.40;47.10;;;;;;4954353;29;20214;-62
2022/03/19 04:45:49;;;;;;;14.57;13.07;;;19.40;47.10;;;;;;4936763;29;20230;-63
2022/03/19 04:48:14;;;;;;;13.45;12.18;;;19.40;47.10;;;;;;4952940;29;20190;-62
2022/03/19 04:50:43;;;;;;;14.90;13.48;;;19.40;47.00;;;;;;4952864;29;20190;-62
2022/03/19 04:53:10;;;;;;;14.45;13.05;;;19.40;47.10;;;;;;4953244;28;20198;-62
2022/03/19 04:55:38;;;;;;;13.30;12.02;;;19.30;47.00;;;;;;4952798;29;20210;-62
2022/03/19 04:58:05;;;;;;;14.05;12.80;;;19.30;46.90;;;;;;4936838;29;20191;-62
2022/03/19 05:00:31;;;;;;;13.95;12.65;;;19.40;47.00;;;;;;4937161;29;20182;-62
2022/03/19 05:02:57;;;;;;;12.75;11.55;;;19.40;47.00;;;;;;4936853;29;20205;-63
2022/03/19 05:05:24;;;;;;;13.23;12.02;;;19.40;47.00;;;;;;4952478;29;20576;-63
2022/03/19 05:07:54;;;;;;;13.35;12.02;;;19.40;47.00;;;;;;4937019;29;20667;-63
2022/03/19 05:13:05;;;;;;;12.48;11.27;;;19.30;46.90;;;;;;4952866;29;20285;-62
2022/03/19 05:15:31;;;;;;;12.50;11.25;;;19.40;46.90;;;;;;4936695;29;20619;-62
2022/03/19 05:17:57;;;;;;;11.50;10.55;;;19.40;46.90;;;;;;4937179;29;20198;-62
2022/03/19 05:20:23;;;;;;;12.73;11.45;;;19.40;47.00;;;;;;4936746;29;20187;-62
2022/03/19 05:22:48;;;;;;;13.15;11.95;;;19.40;46.90;;;;;;4952710;28;20194;-60
2022/03/19 05:25:14;;;;;;;12.85;11.68;;;19.30;46.80;;;;;;4952294;28;20265;-62
2022/03/19 05:27:40;;;;;;;12.52;11.32;;;19.40;47.60;;;;;;4936757;29;20187;-62
2022/03/19 05:30:08;;;;;;;12.52;11.32;;;19.40;47.00;;;;;;4938638;29;20190;-62
2022/03/19 05:32:37;;;;;;;13.18;11.93;;;19.40;46.90;;;;;;4956565;29;20273;-62
2022/03/19 05:35:04;;;;;;;13.52;12.23;;;19.40;46.80;;;;;;4953024;29;20218;-63
2022/03/19 05:37:30;;;;;;;14.40;13.00;;;19.40;46.90;;;;;;4921110;29;20283;-62
2022/03/19 05:39:57;;;;;;;13.45;12.15;;;19.40;46.80;;;;;;4938440;29;20211;-62
2022/03/19 05:42:23;;;;;;;13.88;12.48;;;19.30;46.70;;;;;;4953144;29;20187;-63
2022/03/19 05:44:50;;;;;;;12.88;11.57;;;19.40;46.80;;;;;;4936540;29;20211;-62
2022/03/19 05:47:15;;;;;;;12.43;11.23;;;19.40;46.80;;;;;;4921077;29;20242;-62
2022/03/19 05:49:41;;;;;;;11.75;10.65;;;19.40;46.70;;;;;;4937145;29;20194;-62
2022/03/19 05:52:07;;;;;;;12.20;11.10;;;19.30;46.70;;;;;;4936773;29;20180;-63
2022/03/19 05:54:33;;;;;;;10.48;9.55;;;19.30;46.80;;;;;;4952502;29;20274;-62
2022/03/19 05:56:59;;;;;;;11.73;10.63;;;19.40;46.80;;;;;;4920863;29;20241;-63
2022/03/19 05:59:25;;;;;;;11.98;10.88;;;19.40;46.70;;;;;;4936669;29;20192;-62
2022/03/19 06:01:51;;;;;;;11.18;10.10;;;19.40;46.70;;;;;;4937102;29;20191;-62
2022/03/19 06:04:18;;;;;;;12.48;11.27;;;19.40;46.70;;;;;;4936000;29;20226;-62
2022/03/19 06:06:44;;;;;;;11.18;10.07;;;19.40;46.70;;;;;;4920717;29;20207;-62
2022/03/19 06:09:10;;;;;;;11.93;10.77;;;19.40;46.70;;;;;;4920577;29;20215;-62
2022/03/19 06:11:38;;;;;;;12.13;10.95;;;19.40;46.70;;;;;;4952390;29;20191;-63
2022/03/19 06:14:04;;;;;;;12.13;11.02;;;19.40;46.60;;;;;;4936260;29;20258;-63
2022/03/19 06:16:30;;;;;;;11.82;10.70;;;19.40;46.60;;;;;;4936400;29;20215;-62
2022/03/19 06:18:56;;;;;;;11.73;10.63;;;19.40;46.60;;;;;;4920694;29;20199;-63
2022/03/19 06:21:25;;;;;;;11.32;10.32;;;19.40;46.60;;;;;;4952441;29;20218;-63
2022/03/19 06:23:52;;;;;;;12.27;11.07;;;19.40;46.60;;;;;;4936264;29;20187;-62
2022/03/19 06:26:20;;;;;;;12.73;11.43;;;19.40;46.60;;;;;;4936041;29;20215;-65
2022/03/19 06:28:46;;;;;;;12.30;11.18;;;19.40;46.60;;;;;;4936184;29;20187;-65
2022/03/19 06:31:12;;;;;;;11.40;10.30;;;19.40;46.60;;;;;;4920209;29;20187;-65
2022/03/19 06:33:42;;;;;;;12.70;11.50;;;19.30;46.50;;;;;;4936189;29;20188;-65
2022/03/19 06:38:53;;;;;;;11.05;9.95;;;19.30;46.50;;;;;;4952121;29;20179;-65
2022/03/19 06:41:21;;;;;;;11.27;10.20;;;19.30;46.50;;;;;;4951791;28;20179;-65
2022/03/19 06:43:48;;;;;;;11.63;10.52;;;19.40;46.60;;;;;;4919982;29;20180;-65
2022/03/19 06:46:14;;;;;;;11.43;10.32;;;19.30;46.40;;;;;;4935374;29;20222;-65
2022/03/19 06:48:41;;;;;;;10.23;9.23;;;19.40;46.50;;;;;;4919883;29;20214;-65
2022/03/19 06:51:07;;;;;;;10.35;9.35;;;19.30;46.50;;;;;;4951864;28;20248;-65
2022/03/19 06:53:36;;;;;;;11.30;10.20;;;19.30;46.50;;;;;;4937061;29;20183;-65
2022/03/19 06:56:03;;;;;;;11.10;10.00;;;19.30;46.40;;;;;;4919070;29;20589;-65
2022/03/19 06:58:29;;;;;;;11.23;10.23;;;19.30;46.40;;;;;;4935356;29;20198;-65
2022/03/19 07:00:54;;;;;;;10.57;9.57;;;19.30;46.30;;;;;;4919937;29;20187;-65
2022/03/19 07:03:21;;;;;;;11.30;10.25;;;19.40;46.40;;;;;;4935717;29;20722;-65
2022/03/19 07:05:47;;;;;;;11.38;10.38;;;19.40;46.40;;;;;;4935120;29;20362;-65
2022/03/19 07:08:13;;;;;;;11.13;10.10;;;19.40;46.40;;;;;;4956838;28;20186;-65
2022/03/19 07:10:38;;;;;;;11.82;10.63;;;19.40;46.40;;;;;;4923028;29;20197;-65
2022/03/19 07:13:04;;;;;;;11.50;10.40;;;19.40;46.40;;;;;;4938375;29;20186;-65
2022/03/19 07:15:30;;;;;;;11.65;10.60;;;19.40;46.40;;;;;;4938207;29;20577;-65
2022/03/19 07:17:58;;;;;;;10.75;9.73;;;19.40;46.40;;;;;;4938644;29;20183;-65
2022/03/19 07:20:24;;;;;;;12.18;10.57;;;19.40;46.30;;;;;;4942232;28;20190;-65
2022/03/19 07:23:02;;;;;;;12.68;11.48;;;19.30;46.20;;;;;;4957594;28;20194;-65
2022/03/19 07:25:33;;;;;;;12.15;10.95;;;19.40;46.20;;;;;;4973279;28;20239;-65
2022/03/19 07:28:04;;;;;;;11.48;10.35;;;19.40;46.10;;;;;;4953349;28;20208;-64
2022/03/19 07:30:30;;;;;;;11.68;10.57;;;19.40;46.10;;;;;;4926191;29;20257;-65
2022/03/19 07:32:57;;;;;;;11.55;10.45;;;19.50;46.10;;;;;;4939383;28;20241;-67
2022/03/19 07:35:23;;;;;;;11.40;10.30;;;19.50;46.10;;;;;;4923068;29;20217;-65
2022/03/19 07:37:49;;;;;;;11.35;10.35;;;19.60;46.20;;;;;;4935303;29;20235;-64
2022/03/19 07:41:45;;;;;;;11.63;10.43;;;19.60;46.00;;;;;;4918680;29;20198;-65
2022/03/19 07:43:08;;;;;;;11.23;10.15;;;19.60;45.80;;;;;;4937677;28;20652;-65
2022/03/19 07:45:35;;;;;;;12.13;10.90;;;19.60;45.80;;;;;;4937482;29;20214;-65
2022/03/19 07:48:02;;;;;;;12.05;10.93;;;19.70;45.80;;;;;;4946002;29;20273;-65
2022/03/19 07:50:28;;;;;;;12.02;10.82;;;19.60;45.70;;;;;;4921785;28;20191;-64
2022/03/19 07:52:54;;;;;;;11.80;10.70;;;19.70;45.70;;;;;;4937055;29;20197;-65
2022/03/19 07:55:20;;;;;;;11.95;10.85;;;19.70;45.60;;;;;;4937562;29;20233;-65
2022/03/19 07:57:46;;;;;;;10.88;9.90;;;19.70;45.70;;;;;;4937568;29;20198;-65
2022/03/19 08:00:13;;;;;;;11.38;10.27;;;19.70;45.60;;;;;;4937467;29;20666;-65
2022/03/19 08:02:42;;;;;;;12.25;11.13;;;19.70;45.60;;;;;;4937892;29;20194;-65
2022/03/19 08:05:09;;;;;;;11.20;10.20;;;19.70;45.50;;;;;;4931768;28;20225;-66
2022/03/19 08:07:37;;;;;;;11.15;10.15;;;19.80;45.60;;;;;;4940726;28;20185;-65
2022/03/19 08:10:13;;;;;;;11.80;10.70;;;19.80;45.60;;;;;;4951079;28;20182;-65
2022/03/19 08:12:42;;;;;;;11.82;10.63;;;19.80;45.40;;;;;;4937370;29;20715;-66
2022/03/19 08:15:10;;;;;;;11.68;10.55;;;19.80;45.40;;;;;;4953548;28;20230;-65
2022/03/19 08:17:41;;;;;;;12.02;10.75;;;19.80;45.40;;;;;;4937260;29;20668;-65
2022/03/19 08:20:08;;;;;;;11.23;10.13;;;19.80;45.40;;;;;;4929275;29;20281;-65
2022/03/19 08:22:34;;;;;;;11.82;10.63;;;19.80;45.40;;;;;;4921314;29;20667;-65
2022/03/19 08:25:01;;;;;;;11.27;10.18;;;19.90;45.40;;;;;;4922495;29;20277;-63
2022/03/19 08:27:27;;;;;;;11.35;10.35;;;19.90;45.40;;;;;;4937275;29;20201;-65
2022/03/19 08:29:53;;;;;;;10.82;9.82;;;19.80;45.40;;;;;;4921269;29;20195;-65
2022/03/19 08:32:20;;;;;;;11.52;10.43;;;19.80;45.30;;;;;;4969806;28;20663;-65
2022/03/19 08:34:46;;;;;;;11.75;10.65;;;19.90;45.40;;;;;;4960953;28;20191;-65
2022/03/19 08:37:12;;;;;;;11.57;10.48;;;19.90;45.40;;;;;;4936920;29;20202;-65
2022/03/19 08:42:22;;;;;;;11.48;10.43;;;19.90;45.40;;;;;;4967579;28;20225;-64
2022/03/19 08:44:49;;;;;;;11.57;10.48;;;19.90;45.30;;;;;;4956560;28;20202;-64
2022/03/19 08:47:15;;;;;;;11.80;10.63;;;19.90;45.30;;;;;;4954188;29;20175;-65
2022/03/19 08:49:41;;;;;;;11.35;10.27;;;19.90;45.30;;;;;;4952846;28;20224;-64
2022/03/19 08:52:07;;;;;;;11.30;10.20;;;19.90;45.30;;;;;;4954109;28;20205;-64
2022/03/19 08:54:33;;;;;;;11.85;10.75;;;19.90;45.40;;;;;;4921030;29;20194;-65
2022/03/19 08:56:59;;;;;;;11.27;10.18;;;19.90;45.30;;;;;;4936731;29;20206;-64
2022/03/19 08:59:25;;;;;;;11.05;9.95;;;19.90;45.20;;;;;;4936913;29;20199;-65
2022/03/19 09:01:53;;;;;;;11.48;10.27;;;19.90;45.20;;;;;;4943683;29;20190;-65
2022/03/19 09:04:19;;;;;;;11.80;10.68;;;20.00;45.40;;;;;;4924046;29;20214;-64
2022/03/19 09:06:46;;;;;;;11.38;10.18;;;19.90;45.20;;;;;;4940431;29;20229;-65
2022/03/19 09:09:14;;;;;;;11.50;10.40;;;19.90;45.80;;;;;;4940892;29;20193;-64
2022/03/19 09:11:40;;;;;;;11.38;10.27;;;19.90;45.10;;;;;;4924791;29;20186;-65
2022/03/19 09:14:08;;;;;;;11.57;10.48;;;20.00;45.30;;;;;;4942147;29;20197;-65
2022/03/19 09:16:35;;;;;;;11.15;10.05;;;19.90;45.10;;;;;;4936918;29;20210;-63
2022/03/19 09:19:02;;;;;;;10.75;9.75;;;20.00;45.30;;;;;;4940569;29;20206;-64
2022/03/19 09:21:29;;;;;;;10.80;9.80;;;19.90;45.20;;;;;;4940446;29;20656;-64
2022/03/19 09:23:57;;;;;;;11.05;9.98;;;20.00;45.20;;;;;;4940440;29;20195;-64
2022/03/19 09:26:24;;;;;;;11.23;10.23;;;20.00;45.20;;;;;;4957289;28;20679;-64
2022/03/19 09:28:50;;;;;;;11.02;9.98;;;19.90;45.10;;;;;;4924449;29;20621;-64
2022/03/19 09:31:17;;;;;;;11.07;10.00;;;19.90;45.00;;;;;;4924540;29;20186;-64
2022/03/19 09:33:45;;;;;;;11.45;10.35;;;20.00;45.20;;;;;;4924513;29;20270;-64
2022/03/19 09:36:12;;;;;;;11.10;10.00;;;20.00;45.10;;;;;;4939931;29;20283;-64
2022/03/19 09:38:40;;;;;;;11.35;10.25;;;19.90;45.00;;;;;;4940258;29;20193;-64
2022/03/19 09:41:07;;;;;;;10.80;9.80;;;20.00;45.20;;;;;;4956233;29;20190;-63
2022/03/19 09:43:33;;;;;;;10.80;9.65;;;20.00;45.10;;;;;;4940101;29;20183;-65
2022/03/19 09:46:01;;;;;;;11.05;10.02;;;19.90;45.10;;;;;;4939826;29;20719;-63
2022/03/19 09:48:27;;;;;;;10.93;9.75;;;20.00;45.10;;;;;;5000001;23;20171;-66
2022/03/19 09:50:55;;;;;;;11.02;10.00;;;20.00;45.10;;;;;;5020478;28;20193;-67
2022/03/19 09:53:25;;;;;;;10.43;9.43;;;20.00;45.10;;;;;;5020904;28;20178;-66
2022/03/19 09:55:56;;;;;;;11.68;10.30;;;20.00;45.10;;;;;;5037377;28;20242;-68
2022/03/19 09:58:23;;;;;;;11.07;10.00;;;20.00;45.10;;;;;;5054953;28;20253;-67
2022/03/19 10:00:48;;;;;;;12.07;10.80;;;20.00;45.00;;;;;;5037056;28;20207;-66
2022/03/19 10:03:14;;;;;;;11.18;10.10;;;20.00;45.10;;;;;;5054733;28;20187;-66
2022/03/19 10:08:39;;;;;;;10.77;9.75;;;20.00;45.00;;;;;;5055164;28;20174;-66
2022/03/19 10:11:11;;;;;;;10.10;9.10;;;19.90;44.90;;;;;;5036909;28;20179;-66
2022/03/19 10:13:42;;;;;;;11.05;9.95;;;20.00;45.20;;;;;;5020403;28;20183;-66
2022/03/19 10:16:17;;;;;;;10.70;9.70;;;20.00;45.20;;;;;;5036389;28;20210;-66
2022/03/19 10:18:43;;;;;;;10.18;9.18;;;20.00;45.10;;;;;;5037003;28;20206;-68
2022/03/19 10:21:16;;;;;;;10.18;9.18;;;19.90;45.10;;;;;;5036513;28;20194;-66
2022/03/19 10:23:43;;;;;;;11.48;10.07;;;20.00;45.20;;;;;;5020551;28;20182;-66
2022/03/19 10:26:34;;;;;;;10.05;9.05;;;20.00;45.10;;;;;;5020225;28;20209;-66
2022/03/19 10:29:09;;;;;;;10.35;9.45;;;20.00;45.20;;;;;;5020255;28;20202;-66
2022/03/19 10:31:46;;;;;;;10.63;9.50;;;20.00;44.90;;;;;;5036498;28;20190;-66
2022/03/19 10:34:14;;;;;;;10.60;9.60;;;20.00;45.20;;;;;;5019950;28;20267;-66
2022/03/19 10:36:45;;;;;;;11.40;10.23;;;20.00;45.10;;;;;;5019747;28;20190;-66
2022/03/19 10:39:22;;;;;;;9.95;9.05;;;20.00;45.00;;;;;;5036681;28;20214;-67
2022/03/19 10:41:49;;;;;;;10.48;9.40;;;20.00;45.10;;;;;;5024311;28;20179;-66
2022/03/19 10:44:19;;;;;;;10.73;9.73;;;20.00;45.00;;;;;;5019726;28;20218;-66
2022/03/19 10:46:50;;;;;;;10.93;9.77;;;20.00;44.90;;;;;;5035874;28;20281;-66
2022/03/19 10:49:19;;;;;;;10.88;9.88;;;20.00;45.00;;;;;;5035994;28;20214;-67
2022/03/19 10:51:54;;;;;;;10.55;9.57;;;20.00;44.90;;;;;;5036189;28;20174;-66
2022/03/19 10:54:22;;;;;;;10.25;9.35;;;20.00;44.90;;;;;;5035432;28;20549;-66
2022/03/19 10:56:49;;;;;;;10.70;9.70;;;20.00;44.80;;;;;;5035391;28;20182;-66
2022/03/19 10:59:16;;;;;;;10.93;9.82;;;20.00;44.80;;;;;;5036131;28;20203;-66
2022/03/19 11:01:43;;;;;;;10.25;8.98;;;20.00;44.70;;;;;;5052691;28;20187;-66
2022/03/19 11:04:11;;;;;;;10.48;9.52;;;20.00;44.60;;;;;;5035975;28;20206;-66
2022/03/19 11:06:40;;;;;;;10.70;9.55;;;20.00;44.70;;;;;;5019273;28;20182;-66
2022/03/19 11:09:10;;;;;;;10.13;9.15;;;20.00;44.70;;;;;;5019639;28;20214;-66
2022/03/19 11:11:56;;;;;;;10.77;9.57;;;20.00;44.90;;;;;;5036113;28;20190;-66
2022/03/19 11:14:24;;;;;;;10.32;9.32;;;20.00;44.90;;;;;;5036059;28;20178;-66
2022/03/19 11:19:49;;;;;;;11.60;10.40;;;20.00;44.90;;;;;;5035596;28;20206;-66
2022/03/19 11:22:15;;;;;;;10.65;9.55;;;20.00;44.80;;;;;;5019409;28;20186;-66
2022/03/19 11:25:07;;;;;;;10.32;9.40;;;20.00;44.90;;;;;;5019048;28;20214;-66
2022/03/19 11:27:37;;;;;;;11.82;9.35;;;20.00;45.00;;;;;;5018107;28;20273;-66
2022/03/19 11:30:05;;;;;;;11.13;9.05;;;20.00;45.00;;;;;;5018937;28;20224;-66
2022/03/19 11:32:32;;;;;;;9.57;8.68;;;20.00;45.10;;;;;;5035429;28;20182;-66
2022/03/19 11:34:59;;;;;;;10.00;8.95;;;20.00;45.10;;;;;;5018741;28;20258;-66
2022/03/19 11:38:04;;;;;;;9.95;9.02;;;20.00;45.10;;;;;;5035390;28;20190;-66
2022/03/19 11:40:36;;;;;;;9.50;8.63;;;20.00;45.10;;;;;;5018933;28;20205;-66
2022/03/19 11:43:07;;;;;;;9.52;8.55;;;20.00;44.90;;;;;;5035105;28;20175;-66
2022/03/19 11:45:39;;;;;;;9.48;8.55;;;20.00;45.20;;;;;;5034778;28;20226;-66
2022/03/19 11:48:34;;;;;;;8.75;7.95;;;20.00;45.00;;;;;;5035242;28;20178;-66
2022/03/19 11:51:24;;;;;;;8.98;8.18;;;20.00;45.00;;;;;;5052761;28;20178;-66
2022/03/19 11:54:04;;;;;;;9.82;8.35;;;20.00;45.20;;;;;;5035138;28;20232;-66
2022/03/19 11:56:42;;;;;;;9.93;8.93;;;20.00;45.20;;;;;;5035182;28;20189;-66
2022/03/19 11:59:28;;;;;;;9.07;8.18;;;20.00;45.00;;;;;;5035337;28;20288;-66
2022/03/19 12:02:01;;;;;;;9.35;8.45;;;20.00;45.00;;;;;;4995007;28;20202;-66
2022/03/19 12:04:51;;;;;;;9.52;8.60;;;20.00;45.30;;;;;;5034763;28;20289;-66
2022/03/19 12:07:47;;;;;;;9.05;8.23;;;20.00;45.10;;;;;;5051389;28;20561;-67
2022/03/19 12:10:16;;;;;;;9.63;8.30;;;20.00;45.00;;;;;;5034513;28;20206;-66
2022/03/19 12:12:44;;;;;;;9.57;8.68;;;20.00;44.90;;;;;;5018323;28;20194;-67
2022/03/19 12:15:45;;;;;;;10.55;9.50;;;20.00;45.20;;;;;;5034499;28;20183;-67
2022/03/19 12:18:39;;;;;;;9.68;8.70;;;20.00;44.90;;;;;;5034835;28;20176;-66
2022/03/19 12:21:21;;;;;;;9.02;8.13;;;20.00;45.10;;;;;;5034686;28;20185;-66
2022/03/19 12:24:02;;;;;;;10.77;8.68;;;20.00;45.20;;;;;;5034721;28;20224;-66
2022/03/19 12:26:42;;;;;;;9.90;8.90;;;20.00;45.20;;;;;;5018167;28;20664;-67
2022/03/19 12:29:12;;;;;;;9.77;8.85;;;20.00;45.30;;;;;;5056217;28;20214;-66
2022/03/19 12:31:45;;;;;;;10.63;9.55;;;20.00;44.90;;;;;;5034274;28;20190;-67
2022/03/19 12:34:15;;;;;;;10.43;9.27;;;20.00;45.10;;;;;;5035205;28;20186;-66
2022/03/19 12:36:41;;;;;;;9.57;8.57;;;19.90;45.20;;;;;;5018097;28;20257;-66
2022/03/19 12:39:07;;;;;;;9.50;8.60;;;19.90;45.20;;;;;;5054053;28;20193;-66
2022/03/19 12:41:33;;;;;;;9.38;8.48;;;20.00;45.40;;;;;;5037644;28;20194;-67
2022/03/19 12:44:06;;;;;;;8.98;8.05;;;20.00;45.30;;;;;;5017913;28;20182;-69
2022/03/19 12:46:35;;;;;;;9.52;8.63;;;20.00;45.30;;;;;;5027881;28;20208;-67
2022/03/19 12:49:14;;;;;;;9.45;8.45;;;20.00;45.40;;;;;;5027527;28;20206;-67
2022/03/19 12:51:47;;;;;;;9.82;8.27;;;20.00;45.30;;;;;;5017979;28;20665;-67
2022/03/19 12:54:29;;;;;;;9.57;8.57;;;20.00;45.30;;;;;;5034259;28;20186;-67
2022/03/19 12:57:11;;;;;;;9.60;8.70;;;20.00;45.10;;;;;;5017961;28;20280;-66
2022/03/19 12:59:45;;;;;;;9.75;8.75;;;20.00;45.00;;;;;;5034080;28;20228;-67